createdAt,value
2023-10-10T00:04:03.809Z,6.20
2023-10-10T00:06:43.431Z,6.40
2023-10-10T00:09:21.127Z,6.70
2023-10-10T00:11:54.841Z,6.40
2023-10-10T00:14:30.137Z,6.70
2023-10-10T00:17:02.930Z,6.20
2023-10-10T00:19:44.268Z,7.00
2023-10-10T00:22:22.496Z,8.00
2023-10-10T00:24:54.526Z,7.70
2023-10-10T00:27:26.429Z,7.00
2023-10-10T00:30:03.289Z,7.20
2023-10-10T00:32:37.268Z,7.20
2023-10-10T00:35:11.896Z,6.60
2023-10-10T00:37:46.356Z,7.40
2023-10-10T00:40:26.666Z,6.40
2023-10-10T00:42:59.858Z,6.90
2023-10-10T00:45:36.902Z,6.40
2023-10-10T00:48:10.846Z,7.40
2023-10-10T00:50:49.554Z,6.40
2023-10-10T00:53:23.330Z,6.40
2023-10-10T00:55:58.752Z,6.70
2023-10-10T00:58:37.989Z,6.70
2023-10-10T01:01:13.829Z,7.50
2023-10-10T01:03:51.639Z,6.50
2023-10-10T01:06:27.398Z,6.40
2023-10-10T01:09:01.280Z,6.50
2023-10-10T01:11:33.518Z,6.80
2023-10-10T01:14:05.742Z,6.40
2023-10-10T01:16:41.754Z,6.40
2023-10-10T01:19:17.441Z,6.50
2023-10-10T01:21:59.097Z,6.70
2023-10-10T01:24:32.796Z,6.60
2023-10-10T01:27:17.135Z,6.80
2023-10-10T01:29:57.465Z,6.50
2023-10-10T01:32:30.719Z,7.20
2023-10-10T01:35:03.313Z,6.80
2023-10-10T01:37:42.357Z,6.20
2023-10-10T01:40:18.121Z,6.80
2023-10-10T01:42:55.647Z,6.30
2023-10-10T01:45:31.138Z,5.60
2023-10-10T01:48:09.534Z,7.00
2023-10-10T01:50:42.458Z,6.70
2023-10-10T01:53:14.348Z,6.00
2023-10-10T01:55:49.184Z,6.20
2023-10-10T01:58:21.728Z,5.40
2023-10-10T02:00:55.805Z,6.80
2023-10-10T02:03:29.156Z,5.90
2023-10-10T02:06:01.208Z,6.30
2023-10-10T02:11:13.792Z,7.00
2023-10-10T02:13:48.628Z,6.60
2023-10-10T02:16:26.023Z,6.10
2023-10-10T02:19:00.619Z,6.50
2023-10-10T02:21:44.586Z,6.60
2023-10-10T02:24:39.909Z,6.40
2023-10-10T02:27:14.600Z,6.70
2023-10-10T02:29:50.956Z,6.10
2023-10-10T02:32:24.041Z,6.00
2023-10-10T02:35:16.133Z,6.80
2023-10-10T02:37:48.546Z,6.80
2023-10-10T02:40:32.217Z,6.70
2023-10-10T02:43:32.527Z,6.90
2023-10-10T02:46:07.155Z,7.00
2023-10-10T02:48:43.615Z,6.20
2023-10-10T02:51:17.378Z,6.40
2023-10-10T02:53:49.417Z,7.10
2023-10-10T02:58:55.789Z,5.90
2023-10-10T03:01:53.075Z,6.10
2023-10-10T03:04:42.492Z,7.70
2023-10-10T03:07:28.908Z,7.20
2023-10-10T03:10:24.087Z,5.90
2023-10-10T03:13:09.595Z,6.40
2023-10-10T03:15:51.309Z,7.00
2023-10-10T03:18:30.182Z,7.50
2023-10-10T03:21:37.180Z,6.90
2023-10-10T03:24:16.902Z,7.60
2023-10-10T03:27:02.026Z,7.50
2023-10-10T03:29:48.424Z,9.20
2023-10-10T03:32:32.418Z,6.80
2023-10-10T03:35:14.689Z,7.00
2023-10-10T03:37:55.436Z,7.00
2023-10-10T03:40:48.707Z,6.50
2023-10-10T03:43:38.137Z,7.10
2023-10-10T03:46:27.297Z,6.60
2023-10-10T03:49:16.920Z,7.50
2023-10-10T03:52:07.346Z,6.00
2023-10-10T03:54:57.195Z,6.30
2023-10-10T03:57:47.287Z,6.60
2023-10-10T04:00:36.938Z,6.90
2023-10-10T04:03:27.263Z,6.50
2023-10-10T04:06:25.186Z,6.60
2023-10-10T04:09:15.672Z,6.70
2023-10-10T04:12:05.043Z,6.90
2023-10-10T04:14:54.515Z,7.00
2023-10-10T04:17:46.001Z,7.40
2023-10-10T04:20:35.168Z,7.70
2023-10-10T04:23:24.746Z,6.50
2023-10-10T04:26:13.849Z,7.80
2023-10-10T04:29:02.965Z,6.50
2023-10-10T04:31:52.511Z,7.50
2023-10-10T04:34:41.790Z,6.70
2023-10-10T04:37:31.312Z,7.20
2023-10-10T04:40:20.818Z,6.90
2023-10-10T04:43:10.813Z,6.90
2023-10-10T04:46:00.263Z,7.20
2023-10-10T04:48:53.900Z,7.00
2023-10-10T04:51:43.905Z,9.00
2023-10-10T04:54:33.550Z,7.20
2023-10-10T04:57:22.931Z,6.60
2023-10-10T05:00:12.495Z,7.20
2023-10-10T05:03:02.041Z,7.50
2023-10-10T05:05:51.723Z,7.20
2023-10-10T05:08:40.973Z,7.20
2023-10-10T05:11:30.841Z,7.30
2023-10-10T05:14:26.006Z,8.00
2023-10-10T05:17:15.800Z,7.90
2023-10-10T05:20:05.685Z,7.80
2023-10-10T05:22:57.012Z,7.90
2023-10-10T05:25:33.267Z,6.60
2023-10-10T05:28:05.719Z,6.80
2023-10-10T05:30:46.962Z,7.90
2023-10-10T05:33:21.085Z,8.80
2023-10-10T05:36:00.582Z,8.10
2023-10-10T05:38:32.577Z,8.00
2023-10-10T05:41:12.772Z,7.40
2023-10-10T05:43:45.089Z,9.20
2023-10-10T05:46:17.305Z,8.30
2023-10-10T05:48:49.568Z,9.00
2023-10-10T05:51:21.465Z,7.90
2023-10-10T05:56:25.020Z,7.50
2023-10-10T05:58:57.755Z,9.30
2023-10-10T06:01:32.852Z,8.70
2023-10-10T06:04:04.820Z,7.40
2023-10-10T06:06:37.981Z,8.20
2023-10-10T06:09:27.659Z,8.60
2023-10-10T06:12:05.450Z,7.90
2023-10-10T06:14:37.932Z,7.70
2023-10-10T06:17:13.649Z,9.10
2023-10-10T06:19:48.261Z,10.90
2023-10-10T06:22:20.270Z,11.80
2023-10-10T06:24:57.501Z,11.00
2023-10-10T06:27:30.066Z,11.20
2023-10-10T06:30:02.249Z,11.50
2023-10-10T06:32:34.522Z,9.80
2023-10-10T06:35:27.983Z,9.30
2023-10-10T06:37:59.961Z,11.10
2023-10-10T06:40:31.954Z,9.50
2023-10-10T06:43:09.190Z,9.80
2023-10-10T06:45:42.348Z,8.10
2023-10-10T06:48:18.016Z,8.80
2023-10-10T06:50:51.988Z,9.00
2023-10-10T06:53:36.891Z,7.70
2023-10-10T06:56:20.364Z,9.50
2023-10-10T06:59:28.669Z,8.60
2023-10-10T07:02:14.193Z,9.40
2023-10-10T07:04:53.726Z,8.30
2023-10-10T07:07:27.778Z,7.50
2023-10-10T07:10:00.571Z,8.00
2023-10-10T07:12:33.081Z,7.90
2023-10-10T07:15:07.824Z,8.20
2023-10-10T07:17:40.381Z,8.70
2023-10-10T07:20:31.152Z,9.00
2023-10-10T07:23:04.122Z,7.40
2023-10-10T07:25:45.274Z,8.30
2023-10-10T07:28:19.056Z,7.60
2023-10-10T07:30:52.016Z,7.20
2023-10-10T07:33:27.647Z,6.60
2023-10-10T07:36:01.590Z,7.10
2023-10-10T07:38:36.883Z,7.50
2023-10-10T07:41:09.945Z,7.60
2023-10-10T07:43:43.548Z,7.60
2023-10-10T07:46:18.878Z,7.00
2023-10-10T07:48:55.578Z,9.10
2023-10-10T07:51:33.389Z,6.80
2023-10-10T07:54:14.046Z,8.30
2023-10-10T07:56:49.033Z,7.60
2023-10-10T07:59:23.866Z,6.60
2023-10-10T08:01:57.789Z,8.30
2023-10-10T08:04:30.024Z,6.60
2023-10-10T08:07:05.433Z,7.20
2023-10-10T08:09:38.660Z,6.60
2023-10-10T08:12:10.672Z,6.60
2023-10-10T08:14:46.178Z,6.80
2023-10-10T08:17:21.286Z,6.90
2023-10-10T08:19:53.180Z,6.80
2023-10-10T08:22:30.398Z,6.60
2023-10-10T08:25:02.346Z,6.60
2023-10-10T08:27:35.580Z,6.90
2023-10-10T08:30:14.914Z,7.20
2023-10-10T08:32:50.303Z,7.40
2023-10-10T08:35:24.127Z,6.40
2023-10-10T08:37:57.856Z,6.70
2023-10-10T08:40:37.051Z,6.00
2023-10-10T08:43:10.396Z,6.40
2023-10-10T08:45:51.327Z,5.70
2023-10-10T08:48:27.736Z,5.70
2023-10-10T08:51:05.234Z,6.10
2023-10-10T08:53:40.952Z,6.20
2023-10-10T08:56:16.860Z,6.00
2023-10-10T08:58:49.536Z,5.80
2023-10-10T09:01:23.702Z,5.70
2023-10-10T09:03:58.822Z,6.20
2023-10-10T09:06:47.115Z,6.30
2023-10-10T09:09:38.741Z,6.20
2023-10-10T09:12:16.501Z,6.10
2023-10-10T09:14:51.558Z,6.20
2023-10-10T09:17:34.211Z,5.90
2023-10-10T09:20:19.131Z,6.00
2023-10-10T09:25:27.916Z,6.90
2023-10-10T09:28:05.304Z,5.60
2023-10-10T09:30:42.121Z,6.50
2023-10-10T09:33:24.597Z,5.60
2023-10-10T09:36:10.084Z,5.30
2023-10-10T09:38:47.065Z,5.60
2023-10-10T09:41:37.391Z,5.30
2023-10-10T09:44:38.435Z,4.60
2023-10-10T09:47:38.458Z,5.30
2023-10-10T09:50:36.652Z,4.60
2023-10-10T09:53:21.836Z,5.30
2023-10-10T09:55:55.787Z,4.70
2023-10-10T09:58:29.827Z,4.80
2023-10-10T10:01:15.903Z,4.70
2023-10-10T10:04:04.448Z,4.50
2023-10-10T10:07:07.491Z,5.70
2023-10-10T10:10:20.094Z,4.00
2023-10-10T10:13:15.292Z,4.60
2023-10-10T10:16:10.082Z,3.70
2023-10-10T10:18:48.037Z,3.90
2023-10-10T10:21:32.721Z,5.10
2023-10-10T10:24:28.010Z,5.50
2023-10-10T10:27:26.083Z,3.60
2023-10-10T10:30:11.949Z,3.60
2023-10-10T10:32:45.937Z,3.90
2023-10-10T10:35:23.243Z,4.10
2023-10-10T10:38:01.625Z,4.90
2023-10-10T10:40:47.809Z,4.30
2023-10-10T10:43:34.092Z,4.20
2023-10-10T10:46:16.995Z,4.30
2023-10-10T10:52:20.772Z,4.20
2023-10-10T10:55:22.168Z,4.10
2023-10-10T10:58:07.497Z,3.80
2023-10-10T11:03:46.231Z,5.50
2023-10-10T11:06:26.087Z,4.70
2023-10-10T11:09:10.951Z,4.30
2023-10-10T11:11:43.203Z,4.00
2023-10-10T11:14:20.665Z,4.80
2023-10-10T11:16:58.565Z,5.40
2023-10-10T11:19:41.087Z,4.90
2023-10-10T11:22:18.546Z,5.10
2023-10-10T11:24:59.129Z,4.60
2023-10-10T11:27:31.255Z,5.50
2023-10-10T11:30:09.404Z,4.20
2023-10-10T11:32:48.775Z,4.60
2023-10-10T11:35:28.314Z,3.50
2023-10-10T11:38:07.856Z,5.00
2023-10-10T11:40:44.700Z,5.00
2023-10-10T11:43:18.737Z,4.60
2023-10-10T11:45:55.277Z,4.50
2023-10-10T11:48:30.911Z,5.30
2023-10-10T11:51:02.776Z,4.40
2023-10-10T11:53:38.290Z,5.10
2023-10-10T11:56:18.026Z,4.40
2023-10-10T11:58:50.883Z,5.80
2023-10-10T12:01:48.900Z,4.80
2023-10-10T12:04:33.319Z,5.10
2023-10-10T12:07:08.033Z,4.30
2023-10-10T12:09:40.121Z,4.10
2023-10-10T12:12:11.988Z,4.40
2023-10-10T12:14:44.267Z,4.40
2023-10-10T12:17:18.724Z,4.40
2023-10-10T12:19:51.319Z,4.20
2023-10-10T12:22:23.989Z,4.40
2023-10-10T12:24:56.556Z,5.40
2023-10-10T12:27:31.503Z,4.30
2023-10-10T12:30:06.247Z,4.40
2023-10-10T12:32:38.284Z,4.70
2023-10-10T12:35:12.435Z,4.30
2023-10-10T12:37:46.178Z,4.80
2023-10-10T12:40:18.507Z,5.70
2023-10-10T12:42:50.494Z,4.30
2023-10-10T12:45:22.360Z,4.60
2023-10-10T12:47:54.636Z,3.90
2023-10-10T12:50:28.165Z,4.20
2023-10-10T12:53:09.026Z,4.90
2023-10-10T12:55:50.132Z,4.30
2023-10-10T12:58:26.175Z,4.10
2023-10-10T13:00:59.650Z,3.80
2023-10-10T13:03:32.832Z,5.00
2023-10-10T13:06:05.871Z,5.00
2023-10-10T13:08:40.863Z,3.90
2023-10-10T13:11:16.498Z,5.10
2023-10-10T13:13:50.325Z,4.70
2023-10-10T13:16:26.725Z,4.80
2023-10-10T13:19:00.042Z,4.60
2023-10-10T13:21:32.013Z,4.10
2023-10-10T13:24:04.572Z,4.60
2023-10-10T13:26:37.602Z,3.90
2023-10-10T13:29:10.265Z,4.40
2023-10-10T13:31:42.590Z,4.40
2023-10-10T13:34:18.334Z,4.50
2023-10-10T13:36:51.047Z,4.30
2023-10-10T13:39:34.713Z,3.70
2023-10-10T13:42:07.827Z,4.90
2023-10-10T13:44:40.569Z,4.40
2023-10-10T13:47:13.231Z,4.20
2023-10-10T13:49:46.614Z,4.10
2023-10-10T13:52:18.564Z,4.40
2023-10-10T13:54:53.313Z,4.80
2023-10-10T13:57:25.252Z,4.60
2023-10-10T13:59:58.205Z,3.70
2023-10-10T14:02:32.841Z,4.80
2023-10-10T14:05:07.561Z,3.80
2023-10-10T14:07:40.172Z,3.90
2023-10-10T14:10:12.641Z,4.20
2023-10-10T14:12:45.477Z,3.80
2023-10-10T14:15:19.852Z,3.60
2023-10-10T14:17:53.306Z,4.10
2023-10-10T14:20:26.484Z,4.50
2023-10-10T14:22:58.308Z,4.00
2023-10-10T14:25:38.665Z,4.10
2023-10-10T14:28:11.467Z,3.70
2023-10-10T14:30:43.563Z,4.40
2023-10-10T14:33:15.896Z,3.80
2023-10-10T14:35:48.320Z,3.70
2023-10-10T14:38:20.771Z,3.70
2023-10-10T14:40:52.895Z,3.70
2023-10-10T14:43:24.892Z,3.70
2023-10-10T14:45:58.259Z,3.50
2023-10-10T14:48:31.562Z,4.20
2023-10-10T14:51:07.166Z,3.70
2023-10-10T14:53:39.292Z,4.30
2023-10-10T14:56:12.418Z,4.00
2023-10-10T14:58:44.430Z,4.70
2023-10-10T15:01:19.239Z,3.90
2023-10-10T15:03:51.667Z,3.90
2023-10-10T15:06:30.160Z,3.50
2023-10-10T15:09:02.827Z,4.10
2023-10-10T15:11:35.393Z,3.90
2023-10-10T15:14:08.187Z,3.90
2023-10-10T15:16:41.087Z,4.00
2023-10-10T15:19:13.126Z,3.70
2023-10-10T15:21:49.827Z,4.10
2023-10-10T15:24:24.826Z,4.00
2023-10-10T15:26:57.493Z,4.10
2023-10-10T15:29:32.793Z,4.10
2023-10-10T15:32:05.877Z,4.10
2023-10-10T15:34:42.067Z,3.70
2023-10-10T15:37:16.923Z,3.60
2023-10-10T15:39:49.495Z,4.00
2023-10-10T15:42:22.421Z,3.90
2023-10-10T15:44:55.441Z,3.90
2023-10-10T15:47:28.819Z,3.40
2023-10-10T15:50:01.918Z,3.70
2023-10-10T15:52:35.063Z,3.90
2023-10-10T15:55:12.203Z,4.20
2023-10-10T15:57:44.343Z,4.70
2023-10-10T16:00:18.430Z,4.20
2023-10-10T16:02:54.060Z,4.10
2023-10-10T16:05:26.701Z,4.10
2023-10-10T16:08:08.902Z,4.30
2023-10-10T16:10:43.030Z,4.30
2023-10-10T16:13:15.317Z,4.00
2023-10-10T16:15:47.240Z,4.20
2023-10-10T16:18:20.475Z,4.20
2023-10-10T16:20:53.713Z,4.60
2023-10-10T16:23:25.901Z,4.60
2023-10-10T16:25:58.884Z,4.50
2023-10-10T16:28:32.125Z,4.30
2023-10-10T16:31:12.333Z,4.00
2023-10-10T16:33:44.289Z,4.30
2023-10-10T16:36:19.418Z,4.00
2023-10-10T16:38:53.279Z,4.00
2023-10-10T16:41:25.666Z,4.00
2023-10-10T16:44:01.715Z,3.80
2023-10-10T16:46:34.230Z,4.30
2023-10-10T16:49:07.501Z,3.70
2023-10-10T16:51:39.327Z,4.20
2023-10-10T16:54:14.147Z,3.80
2023-10-10T16:56:46.119Z,4.40
2023-10-10T16:59:18.250Z,4.50
2023-10-10T17:01:50.793Z,3.90
2023-10-10T17:04:25.928Z,4.00
2023-10-10T17:07:00.168Z,3.70
2023-10-10T17:09:36.972Z,4.50
2023-10-10T17:12:09.453Z,4.10
2023-10-10T17:14:41.385Z,5.20
2023-10-10T17:17:16.215Z,6.20
2023-10-10T17:19:47.976Z,6.00
2023-10-10T17:22:19.838Z,6.00
2023-10-10T17:24:51.655Z,6.90
2023-10-10T17:27:23.441Z,6.40
2023-10-10T17:29:58.319Z,5.60
2023-10-10T17:32:30.466Z,5.30
2023-10-10T17:35:05.933Z,5.10
2023-10-10T17:37:37.894Z,4.60
2023-10-10T17:40:14.788Z,4.70
2023-10-10T17:42:48.576Z,4.80
2023-10-10T17:45:20.782Z,4.80
2023-10-10T17:47:53.519Z,4.40
2023-10-10T17:50:25.622Z,4.10
2023-10-10T17:52:58.233Z,5.60
2023-10-10T17:55:29.995Z,4.50
2023-10-10T17:58:04.564Z,5.00
2023-10-10T18:00:36.531Z,4.70
2023-10-10T18:03:10.204Z,5.20
2023-10-10T18:05:44.312Z,5.90
2023-10-10T18:08:17.938Z,6.80
2023-10-10T18:10:49.840Z,7.70
2023-10-10T18:13:21.671Z,7.40
2023-10-10T18:15:53.934Z,6.10
2023-10-10T18:18:30.154Z,5.30
2023-10-10T18:21:02.301Z,5.20
2023-10-10T18:23:34.167Z,4.60
2023-10-10T18:26:14.025Z,4.90
2023-10-10T18:28:46.157Z,3.70
2023-10-10T18:31:18.450Z,4.80
2023-10-10T18:33:53.265Z,4.60
2023-10-10T18:36:25.405Z,4.40
2023-10-10T18:39:01.612Z,4.50
2023-10-10T18:41:34.035Z,4.10
2023-10-10T18:44:06.229Z,4.10
2023-10-10T18:46:38.997Z,4.30
2023-10-10T18:49:10.857Z,4.00
2023-10-10T18:54:13.672Z,4.30
2023-10-10T18:56:46.355Z,4.70
2023-10-10T18:59:18.305Z,5.60
2023-10-10T19:01:51.693Z,5.90
2023-10-10T19:04:23.608Z,7.20
2023-10-10T19:06:55.893Z,15.30
2023-10-10T19:09:27.713Z,20.50
2023-10-10T19:11:59.562Z,18.70
2023-10-10T19:14:35.801Z,9.00
2023-10-10T19:17:07.670Z,7.70
2023-10-10T19:19:39.951Z,5.60
2023-10-10T19:22:11.752Z,5.40
2023-10-10T19:24:43.490Z,5.30
2023-10-10T19:29:46.261Z,9.10
2023-10-10T19:32:19.854Z,6.70
2023-10-10T19:34:51.637Z,7.40
2023-10-10T19:39:56.281Z,5.10
2023-10-10T19:42:29.886Z,4.90
2023-10-10T19:45:14.834Z,5.50
2023-10-10T19:47:58.856Z,4.80
2023-10-10T19:50:30.924Z,4.80
2023-10-10T19:53:03.836Z,4.40
2023-10-10T19:55:38.863Z,4.80
2023-10-10T19:58:11.031Z,4.70
2023-10-10T20:00:47.091Z,4.80
2023-10-10T20:03:23.546Z,4.70
2023-10-10T20:05:56.410Z,4.60
2023-10-10T20:08:30.410Z,4.50
2023-10-10T20:11:04.817Z,4.90
2023-10-10T20:13:36.901Z,4.70
2023-10-10T20:16:16.341Z,4.90
2023-10-10T20:18:49.217Z,5.10
2023-10-10T20:21:21.166Z,4.80
2023-10-10T20:23:53.090Z,4.80
2023-10-10T20:26:26.958Z,6.10
2023-10-10T20:28:59.092Z,6.60
2023-10-10T20:31:30.878Z,7.40
2023-10-10T20:36:36.217Z,6.00
2023-10-10T20:39:08.206Z,6.60
2023-10-10T20:41:40.081Z,6.20
2023-10-10T20:46:43.023Z,5.50
2023-10-10T20:49:17.198Z,4.70
2023-10-10T20:51:55.997Z,5.10
2023-10-10T20:54:28.493Z,4.80
2023-10-10T20:57:02.754Z,4.80
2023-10-10T20:59:35.498Z,4.20
2023-10-10T21:02:08.231Z,4.70
2023-10-10T21:04:40.166Z,5.40
2023-10-10T21:07:12.206Z,4.50
2023-10-10T21:09:44.597Z,4.60
2023-10-10T21:12:16.621Z,4.80
2023-10-10T21:14:48.878Z,4.50
2023-10-10T21:17:20.873Z,4.70
2023-10-10T21:19:53.000Z,4.60
2023-10-10T21:22:24.827Z,4.70
2023-10-10T21:27:27.031Z,4.00
2023-10-10T21:32:31.837Z,4.40
2023-10-10T21:35:09.953Z,4.80
2023-10-10T21:37:44.547Z,4.50
2023-10-10T21:40:21.454Z,4.70
2023-10-10T21:42:55.215Z,4.70
2023-10-10T21:45:33.559Z,4.50
2023-10-10T21:48:06.998Z,4.60
2023-10-10T21:50:41.976Z,4.40
2023-10-10T21:53:14.180Z,5.20
2023-10-10T21:58:16.512Z,4.70
2023-10-10T22:00:56.499Z,4.30
2023-10-10T22:03:28.936Z,4.50
2023-10-10T22:06:02.871Z,4.70
2023-10-10T22:08:37.807Z,4.50
2023-10-10T22:11:10.093Z,4.10
2023-10-10T22:13:42.057Z,5.10
2023-10-10T22:16:13.967Z,4.70
2023-10-10T22:18:48.642Z,4.00
2023-10-10T22:21:23.645Z,3.80
2023-10-10T22:23:56.779Z,4.80
2023-10-10T22:26:28.874Z,4.10
2023-10-10T22:29:00.724Z,4.80
2023-10-10T22:31:32.990Z,4.30
2023-10-10T22:34:09.289Z,4.70
2023-10-10T22:36:42.458Z,4.10
2023-10-10T22:41:49.682Z,4.10
2023-10-10T22:49:22.522Z,4.00
2023-10-10T22:54:26.168Z,4.10
2023-10-10T22:59:29.148Z,4.00
2023-10-10T23:02:01.046Z,4.20
2023-10-10T23:04:35.240Z,3.80
2023-10-10T23:07:08.369Z,3.60
2023-10-10T23:09:42.710Z,4.70
2023-10-10T23:12:15.592Z,3.90
2023-10-10T23:14:47.439Z,3.90
2023-10-10T23:19:52.985Z,3.70
2023-10-10T23:24:56.389Z,4.60
2023-10-10T23:27:28.406Z,3.70
2023-10-10T23:30:00.846Z,4.20
2023-10-10T23:32:32.841Z,4.30
2023-10-10T23:35:09.565Z,5.00
2023-10-10T23:37:43.613Z,4.00
2023-10-10T23:40:17.187Z,4.30
2023-10-10T23:42:52.898Z,4.00
2023-10-10T23:45:25.482Z,3.60
2023-10-10T23:47:59.086Z,4.20
2023-10-10T23:50:39.767Z,4.30
2023-10-10T23:53:14.810Z,4.20
2023-10-10T23:55:48.333Z,4.00
2023-10-10T23:58:22.915Z,4.40
